sensor_id;sensor_type;location;lat;lon;timestamp;temperature;humidity
71627;DHT22;59475;52.464;13.590;2022-09-01T00:01:54;15.52;72.75
71627;DHT22;59475;52.464;13.590;2022-09-01T00:04:22;15.49;72.22
71627;DHT22;59475;52.464;13.590;2022-09-01T00:06:51;15.49;72.58
71627;DHT22;59475;52.464;13.590;2022-09-01T00:09:19;15.51;72.40
71627;DHT22;59475;52.464;13.590;2022-09-01T00:11:48;15.46;72.37
71627;DHT22;59475;52.464;13.590;2022-09-01T00:14:14;15.46;72.55
71627;DHT22;59475;52.464;13.590;2022-09-01T00:16:39;15.45;72.06
71627;DHT22;59475;52.464;13.590;2022-09-01T00:19:05;15.46;72.10
71627;DHT22;59475;52.464;13.590;2022-09-01T00:21:37;15.42;72.16
71627;DHT22;59475;52.464;13.590;2022-09-01T00:24:04;15.44;72.34
71627;DHT22;59475;52.464;13.590;2022-09-01T00:26:30;15.42;72.25
71627;DHT22;59475;52.464;13.590;2022-09-01T00:28:55;15.42;72.00
71627;DHT22;59475;52.464;13.590;2022-09-01T00:31:21;15.42;72.00
71627;DHT22;59475;52.464;13.590;2022-09-01T00:33:47;15.38;72.31
71627;DHT22;59475;52.464;13.590;2022-09-01T00:36:14;15.39;72.17
71627;DHT22;59475;52.464;13.590;2022-09-01T00:38:40;15.35;72.19
71627;DHT22;59475;52.464;13.590;2022-09-01T00:41:06;15.36;72.11
71627;DHT22;59475;52.464;13.590;2022-09-01T00:46:05;15.34;72.23
71627;DHT22;59475;52.464;13.590;2022-09-01T00:48:31;15.36;72.14
71627;DHT22;59475;52.464;13.590;2022-09-01T00:50:57;15.32;72.21
71627;DHT22;59475;52.464;13.590;2022-09-01T00:53:22;15.30;72.51
71627;DHT22;59475;52.464;13.590;2022-09-01T00:55:48;15.30;72.31
71627;DHT22;59475;52.464;13.590;2022-09-01T00:58:13;15.30;72.59
71627;DHT22;59475;52.464;13.590;2022-09-01T01:00:39;15.30;72.83
71627;DHT22;59475;52.464;13.590;2022-09-01T01:03:14;15.30;72.96
71627;DHT22;59475;52.464;13.590;2022-09-01T01:05:43;15.30;72.66
71627;DHT22;59475;52.464;13.590;2022-09-01T01:08:13;15.25;72.65
71627;DHT22;59475;52.464;13.590;2022-09-01T01:10:40;15.23;72.91
71627;DHT22;59475;52.464;13.590;2022-09-01T01:13:11;15.23;72.82
71627;DHT22;59475;52.464;13.590;2022-09-01T01:15:38;15.21;73.26
71627;DHT22;59475;52.464;13.590;2022-09-01T01:18:08;15.18;73.19
71627;DHT22;59475;52.464;13.590;2022-09-01T01:20:33;15.17;73.29
71627;DHT22;59475;52.464;13.590;2022-09-01T01:23:38;15.15;73.40
71627;DHT22;59475;52.464;13.590;2022-09-01T01:26:06;15.10;73.63
71627;DHT22;59475;52.464;13.590;2022-09-01T01:28:37;15.12;73.44
71627;DHT22;59475;52.464;13.590;2022-09-01T01:31:10;15.14;73.40
71627;DHT22;59475;52.464;13.590;2022-09-01T01:33:42;15.12;73.27
71627;DHT22;59475;52.464;13.590;2022-09-01T01:36:16;15.10;73.90
71627;DHT22;59475;52.464;13.590;2022-09-01T01:38:45;15.08;73.83
71627;DHT22;59475;52.464;13.590;2022-09-01T01:41:12;15.01;74.13
71627;DHT22;59475;52.464;13.590;2022-09-01T01:43:38;14.96;74.50
71627;DHT22;59475;52.464;13.590;2022-09-01T01:46:06;14.93;74.56
71627;DHT22;59475;52.464;13.590;2022-09-01T01:48:33;14.96;74.53
71627;DHT22;59475;52.464;13.590;2022-09-01T01:51:01;14.94;74.61
71627;DHT22;59475;52.464;13.590;2022-09-01T01:53:29;14.91;74.78
71627;DHT22;59475;52.464;13.590;2022-09-01T01:55:55;14.86;75.02
71627;DHT22;59475;52.464;13.590;2022-09-01T01:58:23;14.81;75.23
71627;DHT22;59475;52.464;13.590;2022-09-01T02:00:51;14.84;75.49
71627;DHT22;59475;52.464;13.590;2022-09-01T02:03:20;14.77;75.72
71627;DHT22;59475;52.464;13.590;2022-09-01T02:05:48;14.77;75.82
71627;DHT22;59475;52.464;13.590;2022-09-01T02:08:14;14.75;75.93
71627;DHT22;59475;52.464;13.590;2022-09-01T02:10:43;14.73;76.19
71627;DHT22;59475;52.464;13.590;2022-09-01T02:13:11;14.72;76.02
71627;DHT22;59475;52.464;13.590;2022-09-01T02:15:51;14.69;76.63
71627;DHT22;59475;52.464;13.590;2022-09-01T02:18:35;14.65;76.64
71627;DHT22;59475;52.464;13.590;2022-09-01T02:21:03;14.62;76.84
71627;DHT22;59475;52.464;13.590;2022-09-01T02:23:34;14.59;76.83
71627;DHT22;59475;52.464;13.590;2022-09-01T02:25:59;14.59;77.38
71627;DHT22;59475;52.464;13.590;2022-09-01T02:28:27;14.53;77.42
71627;DHT22;59475;52.464;13.590;2022-09-01T02:30:55;14.49;77.80
71627;DHT22;59475;52.464;13.590;2022-09-01T02:33:22;14.45;77.89
71627;DHT22;59475;52.464;13.590;2022-09-01T02:35:51;14.39;77.96
71627;DHT22;59475;52.464;13.590;2022-09-01T02:38:17;14.33;78.23
71627;DHT22;59475;52.464;13.590;2022-09-01T02:40:45;14.31;78.46
71627;DHT22;59475;52.464;13.590;2022-09-01T02:43:12;14.24;79.19
71627;DHT22;59475;52.464;13.590;2022-09-01T02:45:39;14.11;79.32
71627;DHT22;59475;52.464;13.590;2022-09-01T02:48:08;14.08;79.34
71627;DHT22;59475;52.464;13.590;2022-09-01T02:50:39;14.03;79.78
71627;DHT22;59475;52.464;13.590;2022-09-01T02:53:06;13.95;80.25
71627;DHT22;59475;52.464;13.590;2022-09-01T02:55:37;13.88;80.32
71627;DHT22;59475;52.464;13.590;2022-09-01T02:58:03;13.85;80.57
71627;DHT22;59475;52.464;13.590;2022-09-01T03:00:29;13.76;80.77
71627;DHT22;59475;52.464;13.590;2022-09-01T03:02:59;13.66;81.07
71627;DHT22;59475;52.464;13.590;2022-09-01T03:05:28;13.59;81.61
71627;DHT22;59475;52.464;13.590;2022-09-01T03:07:55;13.49;81.91
71627;DHT22;59475;52.464;13.590;2022-09-01T03:10:33;13.46;82.08
71627;DHT22;59475;52.464;13.590;2022-09-01T03:13:05;13.38;82.34
71627;DHT22;59475;52.464;13.590;2022-09-01T03:15:33;13.29;82.69
71627;DHT22;59475;52.464;13.590;2022-09-01T03:18:01;13.23;82.93
71627;DHT22;59475;52.464;13.590;2022-09-01T03:20:28;13.22;83.06
71627;DHT22;59475;52.464;13.590;2022-09-01T03:22:55;13.19;83.01
71627;DHT22;59475;52.464;13.590;2022-09-01T03:25:22;13.14;82.95
71627;DHT22;59475;52.464;13.590;2022-09-01T03:27:50;13.09;83.41
71627;DHT22;59475;52.464;13.590;2022-09-01T03:30:16;13.05;83.48
71627;DHT22;59475;52.464;13.590;2022-09-01T03:32:41;12.98;83.72
71627;DHT22;59475;52.464;13.590;2022-09-01T03:35:07;12.92;83.75
71627;DHT22;59475;52.464;13.590;2022-09-01T03:37:33;12.84;84.25
71627;DHT22;59475;52.464;13.590;2022-09-01T03:40:01;12.84;84.36
71627;DHT22;59475;52.464;13.590;2022-09-01T03:42:28;12.79;84.26
71627;DHT22;59475;52.464;13.590;2022-09-01T03:44:55;12.77;84.51
71627;DHT22;59475;52.464;13.590;2022-09-01T03:47:21;12.70;84.56
71627;DHT22;59475;52.464;13.590;2022-09-01T03:49:49;12.65;84.83
71627;DHT22;59475;52.464;13.590;2022-09-01T03:52:16;12.63;84.96
71627;DHT22;59475;52.464;13.590;2022-09-01T03:54:43;12.59;85.10
71627;DHT22;59475;52.464;13.590;2022-09-01T03:57:09;12.57;84.90
71627;DHT22;59475;52.464;13.590;2022-09-01T03:59:36;12.49;85.29
71627;DHT22;59475;52.464;13.590;2022-09-01T04:02:07;12.43;85.60
71627;DHT22;59475;52.464;13.590;2022-09-01T04:04:32;12.40;85.45
71627;DHT22;59475;52.464;13.590;2022-09-01T04:06:58;12.35;85.68
71627;DHT22;59475;52.464;13.590;2022-09-01T04:09:26;12.28;86.10
71627;DHT22;59475;52.464;13.590;2022-09-01T04:11:53;12.24;85.94
71627;DHT22;59475;52.464;13.590;2022-09-01T04:14:18;12.22;86.11
71627;DHT22;59475;52.464;13.590;2022-09-01T04:16:44;12.19;86.26
71627;DHT22;59475;52.464;13.590;2022-09-01T04:19:33;12.14;86.38
71627;DHT22;59475;52.464;13.590;2022-09-01T04:22:01;12.09;86.67
71627;DHT22;59475;52.464;13.590;2022-09-01T04:24:29;12.05;86.78
71627;DHT22;59475;52.464;13.590;2022-09-01T04:26:57;11.98;87.16
71627;DHT22;59475;52.464;13.590;2022-09-01T04:29:24;11.97;87.08
71627;DHT22;59475;52.464;13.590;2022-09-01T04:31:55;11.97;87.13
71627;DHT22;59475;52.464;13.590;2022-09-01T04:34:21;11.92;87.31
71627;DHT22;59475;52.464;13.590;2022-09-01T04:36:48;11.89;87.42
71627;DHT22;59475;52.464;13.590;2022-09-01T04:39:17;11.88;87.64
71627;DHT22;59475;52.464;13.590;2022-09-01T04:41:44;11.84;87.60
71627;DHT22;59475;52.464;13.590;2022-09-01T04:44:16;11.88;87.43
71627;DHT22;59475;52.464;13.590;2022-09-01T04:46:44;11.87;87.52
71627;DHT22;59475;52.464;13.590;2022-09-01T04:49:17;11.88;87.52
71627;DHT22;59475;52.464;13.590;2022-09-01T04:51:48;11.88;87.53
71627;DHT22;59475;52.464;13.590;2022-09-01T04:54:14;11.91;87.60
71627;DHT22;59475;52.464;13.590;2022-09-01T04:56:42;11.94;87.37
71627;DHT22;59475;52.464;13.590;2022-09-01T04:59:09;11.97;87.27
71627;DHT22;59475;52.464;13.590;2022-09-01T05:01:35;11.99;87.40
71627;DHT22;59475;52.464;13.590;2022-09-01T05:04:12;12.02;87.44
71627;DHT22;59475;52.464;13.590;2022-09-01T05:06:43;12.05;87.45
71627;DHT22;59475;52.464;13.590;2022-09-01T05:09:10;12.08;87.30
71627;DHT22;59475;52.464;13.590;2022-09-01T05:11:38;12.15;86.99
71627;DHT22;59475;52.464;13.590;2022-09-01T05:14:04;12.18;87.09
71627;DHT22;59475;52.464;13.590;2022-09-01T05:16:32;12.25;86.95
71627;DHT22;59475;52.464;13.590;2022-09-01T05:18:57;12.26;86.89
71627;DHT22;59475;52.464;13.590;2022-09-01T05:21:25;12.35;86.76
71627;DHT22;59475;52.464;13.590;2022-09-01T05:23:57;12.39;86.62
71627;DHT22;59475;52.464;13.590;2022-09-01T05:26:25;12.47;86.70
71627;DHT22;59475;52.464;13.590;2022-09-01T05:28:53;12.54;85.85
71627;DHT22;59475;52.464;13.590;2022-09-01T05:31:20;12.63;85.75
71627;DHT22;59475;52.464;13.590;2022-09-01T05:33:47;12.65;85.78
71627;DHT22;59475;52.464;13.590;2022-09-01T05:36:16;12.73;86.13
71627;DHT22;59475;52.464;13.590;2022-09-01T05:38:43;12.81;84.93
71627;DHT22;59475;52.464;13.590;2022-09-01T05:41:10;12.88;85.20
71627;DHT22;59475;52.464;13.590;2022-09-01T05:43:40;12.95;85.00
71627;DHT22;59475;52.464;13.590;2022-09-01T05:46:11;13.08;85.11
71627;DHT22;59475;52.464;13.590;2022-09-01T05:48:40;13.14;84.48
71627;DHT22;59475;52.464;13.590;2022-09-01T05:51:06;13.26;84.39
71627;DHT22;59475;52.464;13.590;2022-09-01T05:53:32;13.35;83.10
71627;DHT22;59475;52.464;13.590;2022-09-01T05:55:59;13.39;82.95
71627;DHT22;59475;52.464;13.590;2022-09-01T05:58:26;13.47;82.68
71627;DHT22;59475;52.464;13.590;2022-09-01T06:00:53;13.46;82.41
71627;DHT22;59475;52.464;13.590;2022-09-01T06:03:21;13.52;82.56
71627;DHT22;59475;52.464;13.590;2022-09-01T06:05:47;13.62;82.13
71627;DHT22;59475;52.464;13.590;2022-09-01T06:08:18;13.76;82.16
71627;DHT22;59475;52.464;13.590;2022-09-01T06:10:44;13.81;81.74
71627;DHT22;59475;52.464;13.590;2022-09-01T06:13:10;13.91;81.14
71627;DHT22;59475;52.464;13.590;2022-09-01T06:15:36;14.03;81.03
71627;DHT22;59475;52.464;13.590;2022-09-01T06:18:06;14.15;80.49
71627;DHT22;59475;52.464;13.590;2022-09-01T06:20:32;14.15;80.17
71627;DHT22;59475;52.464;13.590;2022-09-01T06:22:58;14.29;80.13
71627;DHT22;59475;52.464;13.590;2022-09-01T06:25:24;14.45;79.09
71627;DHT22;59475;52.464;13.590;2022-09-01T06:27:55;14.55;78.80
71627;DHT22;59475;52.464;13.590;2022-09-01T06:30:20;14.69;78.79
71627;DHT22;59475;52.464;13.590;2022-09-01T06:32:47;14.80;77.63
71627;DHT22;59475;52.464;13.590;2022-09-01T06:35:14;15.03;77.90
71627;DHT22;59475;52.464;13.590;2022-09-01T06:37:41;15.12;76.84
71627;DHT22;59475;52.464;13.590;2022-09-01T06:40:12;15.49;76.60
71627;DHT22;59475;52.464;13.590;2022-09-01T06:42:46;15.78;75.07
71627;DHT22;59475;52.464;13.590;2022-09-01T06:45:16;16.01;73.95
71627;DHT22;59475;52.464;13.590;2022-09-01T06:47:43;16.49;72.43
71627;DHT22;59475;52.464;13.590;2022-09-01T06:50:12;17.00;70.65
71627;DHT22;59475;52.464;13.590;2022-09-01T06:52:40;17.21;69.03
71627;DHT22;59475;52.464;13.590;2022-09-01T06:55:11;17.16;68.88
71627;DHT22;59475;52.464;13.590;2022-09-01T06:57:38;17.48;68.44
71627;DHT22;59475;52.464;13.590;2022-09-01T07:00:08;17.51;68.07
71627;DHT22;59475;52.464;13.590;2022-09-01T07:02:54;17.96;67.53
71627;DHT22;59475;52.464;13.590;2022-09-01T07:05:21;18.26;66.02
71627;DHT22;59475;52.464;13.590;2022-09-01T07:07:47;18.48;65.06
71627;DHT22;59475;52.464;13.590;2022-09-01T07:10:17;18.72;64.14
71627;DHT22;59475;52.464;13.590;2022-09-01T07:12:44;18.86;63.63
71627;DHT22;59475;52.464;13.590;2022-09-01T07:15:11;19.17;63.17
71627;DHT22;59475;52.464;13.590;2022-09-01T07:17:40;19.31;61.89
71627;DHT22;59475;52.464;13.590;2022-09-01T07:20:07;19.38;61.97
71627;DHT22;59475;52.464;13.590;2022-09-01T07:22:33;19.71;60.87
71627;DHT22;59475;52.464;13.590;2022-09-01T07:24:58;19.53;60.85
71627;DHT22;59475;52.464;13.590;2022-09-01T07:27:24;19.16;61.53
71627;DHT22;59475;52.464;13.590;2022-09-01T07:29:51;19.22;61.37
71627;DHT22;59475;52.464;13.590;2022-09-01T07:32:21;19.19;60.67
71627;DHT22;59475;52.464;13.590;2022-09-01T07:34:47;19.00;61.79
71627;DHT22;59475;52.464;13.590;2022-09-01T07:37:12;19.10;60.70
71627;DHT22;59475;52.464;13.590;2022-09-01T07:39:38;19.72;59.24
71627;DHT22;59475;52.464;13.590;2022-09-01T07:42:10;20.08;57.51
71627;DHT22;59475;52.464;13.590;2022-09-01T07:44:36;20.40;57.16
71627;DHT22;59475;52.464;13.590;2022-09-01T07:47:03;20.18;57.05
71627;DHT22;59475;52.464;13.590;2022-09-01T07:49:34;20.33;57.91
71627;DHT22;59475;52.464;13.590;2022-09-01T07:52:03;20.39;56.80
71627;DHT22;59475;52.464;13.590;2022-09-01T07:54:29;20.15;58.19
71627;DHT22;59475;52.464;13.590;2022-09-01T07:56:55;20.37;56.66
71627;DHT22;59475;52.464;13.590;2022-09-01T07:59:21;20.71;55.98
71627;DHT22;59475;52.464;13.590;2022-09-01T08:01:46;20.48;56.47
71627;DHT22;59475;52.464;13.590;2022-09-01T08:04:12;20.12;57.88
71627;DHT22;59475;52.464;13.590;2022-09-01T08:06:38;20.08;56.31
71627;DHT22;59475;52.464;13.590;2022-09-01T08:09:04;20.32;55.40
71627;DHT22;59475;52.464;13.590;2022-09-01T08:11:32;20.56;54.79
71627;DHT22;59475;52.464;13.590;2022-09-01T08:13:59;20.65;55.06
71627;DHT22;59475;52.464;13.590;2022-09-01T08:16:29;21.13;54.28
71627;DHT22;59475;52.464;13.590;2022-09-01T08:18:55;20.63;52.31
71627;DHT22;59475;52.464;13.590;2022-09-01T08:21:22;20.56;54.05
71627;DHT22;59475;52.464;13.590;2022-09-01T08:23:53;20.71;52.92
71627;DHT22;59475;52.464;13.590;2022-09-01T08:26:22;21.33;51.80
71627;DHT22;59475;52.464;13.590;2022-09-01T08:28:48;21.68;48.96
71627;DHT22;59475;52.464;13.590;2022-09-01T08:31:16;21.97;48.79
71627;DHT22;59475;52.464;13.590;2022-09-01T08:33:44;22.01;49.07
71627;DHT22;59475;52.464;13.590;2022-09-01T08:36:12;21.59;49.56
71627;DHT22;59475;52.464;13.590;2022-09-01T08:38:38;21.53;50.02
71627;DHT22;59475;52.464;13.590;2022-09-01T08:41:12;21.93;49.89
71627;DHT22;59475;52.464;13.590;2022-09-01T08:46:27;22.26;48.38
71627;DHT22;59475;52.464;13.590;2022-09-01T08:49:05;22.43;45.89
71627;DHT22;59475;52.464;13.590;2022-09-01T08:51:37;22.94;44.40
71627;DHT22;59475;52.464;13.590;2022-09-01T08:54:06;22.69;46.23
71627;DHT22;59475;52.464;13.590;2022-09-01T08:56:35;23.05;45.37
71627;DHT22;59475;52.464;13.590;2022-09-01T08:59:02;23.89;42.89
71627;DHT22;59475;52.464;13.590;2022-09-01T09:07:09;23.46;43.37
71627;DHT22;59475;52.464;13.590;2022-09-01T09:09:44;23.44;44.06
71627;DHT22;59475;52.464;13.590;2022-09-01T09:15:05;23.72;44.56
71627;DHT22;59475;52.464;13.590;2022-09-01T09:17:36;23.11;45.15
71627;DHT22;59475;52.464;13.590;2022-09-01T09:20:04;22.83;45.27
71627;DHT22;59475;52.464;13.590;2022-09-01T09:22:31;23.48;44.44
71627;DHT22;59475;52.464;13.590;2022-09-01T09:25:11;23.65;43.40
71627;DHT22;59475;52.464;13.590;2022-09-01T09:27:41;24.11;42.29
71627;DHT22;59475;52.464;13.590;2022-09-01T09:37:42;25.38;37.61
71627;DHT22;59475;52.464;13.590;2022-09-01T09:40:12;25.14;37.11
71627;DHT22;59475;52.464;13.590;2022-09-01T09:43:01;25.16;39.01
71627;DHT22;59475;52.464;13.590;2022-09-01T09:45:38;25.79;38.49
71627;DHT22;59475;52.464;13.590;2022-09-01T09:48:28;26.29;36.17
71627;DHT22;59475;52.464;13.590;2022-09-01T09:50:53;26.40;35.43
71627;DHT22;59475;52.464;13.590;2022-09-01T09:53:28;26.95;36.88
71627;DHT22;59475;52.464;13.590;2022-09-01T09:56:16;26.33;35.81
71627;DHT22;59475;52.464;13.590;2022-09-01T09:58:43;26.22;36.25
71627;DHT22;59475;52.464;13.590;2022-09-01T10:01:26;26.48;36.10
71627;DHT22;59475;52.464;13.590;2022-09-01T10:03:54;26.94;34.95
71627;DHT22;59475;52.464;13.590;2022-09-01T10:09:01;26.92;35.78
71627;DHT22;59475;52.464;13.590;2022-09-01T10:11:44;26.61;36.42
71627;DHT22;59475;52.464;13.590;2022-09-01T10:14:16;26.40;37.51
71627;DHT22;59475;52.464;13.590;2022-09-01T10:16:56;25.92;36.13
71627;DHT22;59475;52.464;13.590;2022-09-01T10:19:23;26.04;35.16
71627;DHT22;59475;52.464;13.590;2022-09-01T10:21:50;26.52;35.96
71627;DHT22;59475;52.464;13.590;2022-09-01T10:26:59;27.71;35.12
71627;DHT22;59475;52.464;13.590;2022-09-01T10:29:38;28.27;33.94
71627;DHT22;59475;52.464;13.590;2022-09-01T10:32:07;27.64;33.56
71627;DHT22;59475;52.464;13.590;2022-09-01T10:34:36;27.95;33.38
71627;DHT22;59475;52.464;13.590;2022-09-01T10:37:03;27.67;33.71
71627;DHT22;59475;52.464;13.590;2022-09-01T10:39:28;27.09;35.73
71627;DHT22;59475;52.464;13.590;2022-09-01T10:41:55;27.33;35.21
71627;DHT22;59475;52.464;13.590;2022-09-01T10:44:28;27.61;35.72
71627;DHT22;59475;52.464;13.590;2022-09-01T10:47:24;27.99;34.64
71627;DHT22;59475;52.464;13.590;2022-09-01T10:55:08;25.06;36.87
71627;DHT22;59475;52.464;13.590;2022-09-01T10:57:40;24.61;37.73
71627;DHT22;59475;52.464;13.590;2022-09-01T11:09:04;25.47;35.87
71627;DHT22;59475;52.464;13.590;2022-09-01T11:15:01;23.72;39.80
71627;DHT22;59475;52.464;13.590;2022-09-01T11:17:31;23.31;41.58
71627;DHT22;59475;52.464;13.590;2022-09-01T11:20:31;22.87;41.62
71627;DHT22;59475;52.464;13.590;2022-09-01T11:23:22;22.66;42.95
71627;DHT22;59475;52.464;13.590;2022-09-01T11:33:37;22.28;44.08
71627;DHT22;59475;52.464;13.590;2022-09-01T11:36:14;22.61;42.30
71627;DHT22;59475;52.464;13.590;2022-09-01T11:38:47;22.42;41.68
71627;DHT22;59475;52.464;13.590;2022-09-01T11:41:22;22.33;42.95
71627;DHT22;59475;52.464;13.590;2022-09-01T11:43:50;22.57;43.05
71627;DHT22;59475;52.464;13.590;2022-09-01T11:46:21;22.53;43.56
71627;DHT22;59475;52.464;13.590;2022-09-01T11:48:49;22.55;43.43
71627;DHT22;59475;52.464;13.590;2022-09-01T11:51:14;22.67;43.75
71627;DHT22;59475;52.464;13.590;2022-09-01T11:53:41;22.73;43.59
71627;DHT22;59475;52.464;13.590;2022-09-01T11:56:18;22.61;43.39
71627;DHT22;59475;52.464;13.590;2022-09-01T11:58:45;22.56;43.56
71627;DHT22;59475;52.464;13.590;2022-09-01T12:01:14;22.22;44.78
71627;DHT22;59475;52.464;13.590;2022-09-01T12:03:41;21.78;44.99
71627;DHT22;59475;52.464;13.590;2022-09-01T12:06:09;21.80;43.80
71627;DHT22;59475;52.464;13.590;2022-09-01T12:08:38;21.83;44.32
71627;DHT22;59475;52.464;13.590;2022-09-01T12:11:11;21.88;43.69
71627;DHT22;59475;52.464;13.590;2022-09-01T12:13:39;21.85;42.98
71627;DHT22;59475;52.464;13.590;2022-09-01T12:16:07;22.11;42.99
71627;DHT22;59475;52.464;13.590;2022-09-01T12:18:35;22.36;43.24
71627;DHT22;59475;52.464;13.590;2022-09-01T12:21:05;22.08;43.31
71627;DHT22;59475;52.464;13.590;2022-09-01T12:26:02;21.59;43.77
71627;DHT22;59475;52.464;13.590;2022-09-01T12:28:30;21.49;43.82
71627;DHT22;59475;52.464;13.590;2022-09-01T12:30:59;21.18;44.04
71627;DHT22;59475;52.464;13.590;2022-09-01T12:33:25;21.05;45.08
71627;DHT22;59475;52.464;13.590;2022-09-01T12:35:51;21.11;45.84
71627;DHT22;59475;52.464;13.590;2022-09-01T12:38:35;21.23;45.53
71627;DHT22;59475;52.464;13.590;2022-09-01T12:41:00;21.33;45.83
71627;DHT22;59475;52.464;13.590;2022-09-01T12:43:33;21.61;45.25
71627;DHT22;59475;52.464;13.590;2022-09-01T12:45:59;21.95;43.99
71627;DHT22;59475;52.464;13.590;2022-09-01T12:48:31;22.33;43.22
71627;DHT22;59475;52.464;13.590;2022-09-01T12:50:59;22.70;42.53
71627;DHT22;59475;52.464;13.590;2022-09-01T12:53:29;22.86;41.23
71627;DHT22;59475;52.464;13.590;2022-09-01T12:56:31;22.94;42.07
71627;DHT22;59475;52.464;13.590;2022-09-01T12:59:10;23.10;40.39
71627;DHT22;59475;52.464;13.590;2022-09-01T13:01:37;22.87;41.32
71627;DHT22;59475;52.464;13.590;2022-09-01T13:04:14;22.90;41.22
71627;DHT22;59475;52.464;13.590;2022-09-01T13:06:40;23.00;40.80
71627;DHT22;59475;52.464;13.590;2022-09-01T13:09:05;23.19;40.78
71627;DHT22;59475;52.464;13.590;2022-09-01T13:11:31;23.25;39.15
71627;DHT22;59475;52.464;13.590;2022-09-01T13:13:57;22.96;40.89
71627;DHT22;59475;52.464;13.590;2022-09-01T13:16:23;22.88;40.46
71627;DHT22;59475;52.464;13.590;2022-09-01T13:18:48;22.91;40.19
71627;DHT22;59475;52.464;13.590;2022-09-01T13:21:14;22.53;41.57
71627;DHT22;59475;52.464;13.590;2022-09-01T13:23:39;22.48;40.69
71627;DHT22;59475;52.464;13.590;2022-09-01T13:26:05;22.41;42.16
71627;DHT22;59475;52.464;13.590;2022-09-01T13:28:30;22.48;40.53
71627;DHT22;59475;52.464;13.590;2022-09-01T13:31:00;22.67;41.66
71627;DHT22;59475;52.464;13.590;2022-09-01T13:33:30;22.97;41.47
71627;DHT22;59475;52.464;13.590;2022-09-01T13:35:56;23.15;39.43
71627;DHT22;59475;52.464;13.590;2022-09-01T13:38:21;23.01;39.47
71627;DHT22;59475;52.464;13.590;2022-09-01T13:40:48;23.04;39.17
71627;DHT22;59475;52.464;13.590;2022-09-01T13:43:16;23.18;39.21
71627;DHT22;59475;52.464;13.590;2022-09-01T13:45:43;23.17;38.30
71627;DHT22;59475;52.464;13.590;2022-09-01T13:48:08;22.93;39.52
71627;DHT22;59475;52.464;13.590;2022-09-01T13:50:35;22.80;40.51
71627;DHT22;59475;52.464;13.590;2022-09-01T13:53:01;22.61;40.55
71627;DHT22;59475;52.464;13.590;2022-09-01T13:55:33;22.57;40.31
71627;DHT22;59475;52.464;13.590;2022-09-01T13:57:59;22.59;41.57
71627;DHT22;59475;52.464;13.590;2022-09-01T14:00:28;22.81;41.76
71627;DHT22;59475;52.464;13.590;2022-09-01T14:02:56;23.01;42.12
71627;DHT22;59475;52.464;13.590;2022-09-01T14:05:24;23.00;41.17
71627;DHT22;59475;52.464;13.590;2022-09-01T14:07:50;22.87;40.82
71627;DHT22;59475;52.464;13.590;2022-09-01T14:10:16;22.79;39.93
71627;DHT22;59475;52.464;13.590;2022-09-01T14:12:42;22.69;41.02
71627;DHT22;59475;52.464;13.590;2022-09-01T14:15:09;22.35;42.26
71627;DHT22;59475;52.464;13.590;2022-09-01T14:17:36;22.28;42.31
71627;DHT22;59475;52.464;13.590;2022-09-01T14:20:07;22.02;41.99
71627;DHT22;59475;52.464;13.590;2022-09-01T14:22:35;21.91;42.71
71627;DHT22;59475;52.464;13.590;2022-09-01T14:25:00;22.04;43.28
71627;DHT22;59475;52.464;13.590;2022-09-01T14:27:26;22.08;42.10
71627;DHT22;59475;52.464;13.590;2022-09-01T14:29:51;22.12;42.16
71627;DHT22;59475;52.464;13.590;2022-09-01T14:32:20;22.26;42.38
71627;DHT22;59475;52.464;13.590;2022-09-01T14:34:48;22.32;41.71
71627;DHT22;59475;52.464;13.590;2022-09-01T14:37:14;22.29;42.16
71627;DHT22;59475;52.464;13.590;2022-09-01T14:39:39;22.29;41.49
71627;DHT22;59475;52.464;13.590;2022-09-01T14:42:05;22.29;41.97
71627;DHT22;59475;52.464;13.590;2022-09-01T14:44:35;22.29;43.58
71627;DHT22;59475;52.464;13.590;2022-09-01T14:47:02;22.12;42.83
71627;DHT22;59475;52.464;13.590;2022-09-01T14:49:27;22.02;44.58
71627;DHT22;59475;52.464;13.590;2022-09-01T14:51:52;21.90;44.45
71627;DHT22;59475;52.464;13.590;2022-09-01T14:54:19;21.88;44.46
71627;DHT22;59475;52.464;13.590;2022-09-01T14:56:44;21.94;45.82
71627;DHT22;59475;52.464;13.590;2022-09-01T14:59:11;21.63;44.74
71627;DHT22;59475;52.464;13.590;2022-09-01T15:01:36;21.68;47.03
71627;DHT22;59475;52.464;13.590;2022-09-01T15:04:02;21.50;45.54
71627;DHT22;59475;52.464;13.590;2022-09-01T15:06:27;21.30;45.59
71627;DHT22;59475;52.464;13.590;2022-09-01T15:08:52;21.16;46.53
71627;DHT22;59475;52.464;13.590;2022-09-01T15:11:18;21.06;47.00
71627;DHT22;59475;52.464;13.590;2022-09-01T15:13:44;21.02;47.53
71627;DHT22;59475;52.464;13.590;2022-09-01T15:16:16;20.99;48.22
71627;DHT22;59475;52.464;13.590;2022-09-01T15:18:42;20.96;46.67
71627;DHT22;59475;52.464;13.590;2022-09-01T15:21:23;20.94;46.57
71627;DHT22;59475;52.464;13.590;2022-09-01T15:23:49;20.95;46.38
71627;DHT22;59475;52.464;13.590;2022-09-01T15:26:15;21.01;46.54
71627;DHT22;59475;52.464;13.590;2022-09-01T15:28:43;21.06;46.76
71627;DHT22;59475;52.464;13.590;2022-09-01T15:31:08;21.11;45.82
71627;DHT22;59475;52.464;13.590;2022-09-01T15:33:35;21.09;46.38
71627;DHT22;59475;52.464;13.590;2022-09-01T15:36:00;21.16;45.42
71627;DHT22;59475;52.464;13.590;2022-09-01T15:38:26;21.32;44.54
71627;DHT22;59475;52.464;13.590;2022-09-01T15:40:51;21.43;44.97
71627;DHT22;59475;52.464;13.590;2022-09-01T15:43:17;21.49;44.79
71627;DHT22;59475;52.464;13.590;2022-09-01T15:45:45;21.56;45.73
71627;DHT22;59475;52.464;13.590;2022-09-01T15:48:10;21.66;47.32
71627;DHT22;59475;52.464;13.590;2022-09-01T15:50:36;21.66;47.42
71627;DHT22;59475;52.464;13.590;2022-09-01T15:53:03;21.46;48.15
71627;DHT22;59475;52.464;13.590;2022-09-01T15:55:52;21.30;48.79
71627;DHT22;59475;52.464;13.590;2022-09-01T15:58:18;21.18;49.10
71627;DHT22;59475;52.464;13.590;2022-09-01T16:00:44;21.15;48.76
71627;DHT22;59475;52.464;13.590;2022-09-01T16:03:09;21.15;49.42
71627;DHT22;59475;52.464;13.590;2022-09-01T16:05:37;21.12;50.09
71627;DHT22;59475;52.464;13.590;2022-09-01T16:08:04;21.19;49.46
71627;DHT22;59475;52.464;13.590;2022-09-01T16:10:32;21.23;48.95
71627;DHT22;59475;52.464;13.590;2022-09-01T16:12:59;21.23;49.44
71627;DHT22;59475;52.464;13.590;2022-09-01T16:15:25;21.23;49.60
71627;DHT22;59475;52.464;13.590;2022-09-01T16:20:26;21.02;48.95
71627;DHT22;59475;52.464;13.590;2022-09-01T16:23:09;20.95;47.80